sensor_id;sensor_type;location;lat;lon;timestamp;P1;durP1;ratioP1;P2;durP2;ratioP2
23519;SDS011;11936;50.820;4.336;2022-10-26T00:02:11;5.82;;;2.45;;
23519;SDS011;11936;50.820;4.336;2022-10-26T00:04:36;8.55;;;2.50;;
23519;SDS011;11936;50.820;4.336;2022-10-26T00:07:27;5.43;;;2.70;;
23519;SDS011;11936;50.820;4.336;2022-10-26T00:09:53;7.43;;;2.53;;
23519;SDS011;11936;50.820;4.336;2022-10-26T00:12:39;5.55;;;2.40;;
23519;SDS011;11936;50.820;4.336;2022-10-26T00:15:14;9.70;;;2.08;;
23519;SDS011;11936;50.820;4.336;2022-10-26T00:17:50;9.68;;;2.47;;
23519;SDS011;11936;50.820;4.336;2022-10-26T00:20:16;8.45;;;2.78;;
23519;SDS011;11936;50.820;4.336;2022-10-26T00:25:20;5.38;;;2.08;;
23519;SDS011;11936;50.820;4.336;2022-10-26T00:27:48;4.13;;;1.75;;
23519;SDS011;11936;50.820;4.336;2022-10-26T00:32:39;9.90;;;2.40;;
23519;SDS011;11936;50.820;4.336;2022-10-26T00:35:37;12.60;;;2.97;;
23519;SDS011;11936;50.820;4.336;2022-10-26T00:38:09;4.32;;;2.00;;
23519;SDS011;11936;50.820;4.336;2022-10-26T00:40:43;7.05;;;2.10;;
23519;SDS011;11936;50.820;4.336;2022-10-26T00:43:13;6.90;;;2.10;;
23519;SDS011;11936;50.820;4.336;2022-10-26T00:45:57;8.93;;;2.28;;
23519;SDS011;11936;50.820;4.336;2022-10-26T00:48:25;9.13;;;2.20;;
23519;SDS011;11936;50.820;4.336;2022-10-26T00:51:24;6.43;;;1.95;;
23519;SDS011;11936;50.820;4.336;2022-10-26T00:54:17;9.02;;;2.20;;
23519;SDS011;11936;50.820;4.336;2022-10-26T00:56:50;8.45;;;1.83;;
23519;SDS011;11936;50.820;4.336;2022-10-26T00:59:18;6.53;;;2.10;;
23519;SDS011;11936;50.820;4.336;2022-10-26T01:01:55;7.75;;;2.20;;
23519;SDS011;11936;50.820;4.336;2022-10-26T01:04:21;7.35;;;2.20;;
23519;SDS011;11936;50.820;4.336;2022-10-26T01:06:56;5.25;;;1.80;;
23519;SDS011;11936;50.820;4.336;2022-10-26T01:09:32;4.95;;;1.88;;
23519;SDS011;11936;50.820;4.336;2022-10-26T01:11:59;8.52;;;1.92;;
23519;SDS011;11936;50.820;4.336;2022-10-26T01:14:34;7.15;;;1.85;;
23519;SDS011;11936;50.820;4.336;2022-10-26T01:20:20;5.03;;;1.70;;
23519;SDS011;11936;50.820;4.336;2022-10-26T01:27:05;7.50;;;2.08;;
23519;SDS011;11936;50.820;4.336;2022-10-26T01:35:32;4.70;;;1.23;;
23519;SDS011;11936;50.820;4.336;2022-10-26T01:41:03;5.50;;;1.95;;
23519;SDS011;11936;50.820;4.336;2022-10-26T01:43:38;4.47;;;1.88;;
23519;SDS011;11936;50.820;4.336;2022-10-26T01:46:10;7.70;;;1.58;;
23519;SDS011;11936;50.820;4.336;2022-10-26T01:48:38;4.38;;;1.20;;
23519;SDS011;11936;50.820;4.336;2022-10-26T01:51:06;4.32;;;1.20;;
23519;SDS011;11936;50.820;4.336;2022-10-26T01:53:35;5.75;;;2.10;;
23519;SDS011;11936;50.820;4.336;2022-10-26T01:56:08;6.15;;;1.70;;
23519;SDS011;11936;50.820;4.336;2022-10-26T01:58:59;4.73;;;1.60;;
23519;SDS011;11936;50.820;4.336;2022-10-26T02:01:50;2.80;;;1.42;;
23519;SDS011;11936;50.820;4.336;2022-10-26T02:15:20;6.43;;;1.70;;
23519;SDS011;11936;50.820;4.336;2022-10-26T02:20:38;4.25;;;1.70;;
23519;SDS011;11936;50.820;4.336;2022-10-26T02:23:07;7.38;;;1.75;;
23519;SDS011;11936;50.820;4.336;2022-10-26T02:25:38;1.92;;;1.40;;
23519;SDS011;11936;50.820;4.336;2022-10-26T02:28:21;3.28;;;1.23;;
23519;SDS011;11936;50.820;4.336;2022-10-26T02:31:06;4.88;;;1.55;;
23519;SDS011;11936;50.820;4.336;2022-10-26T02:33:39;6.13;;;1.40;;
23519;SDS011;11936;50.820;4.336;2022-10-26T02:36:10;3.63;;;1.40;;
23519;SDS011;11936;50.820;4.336;2022-10-26T02:38:43;7.05;;;1.73;;
23519;SDS011;11936;50.820;4.336;2022-10-26T02:41:32;4.30;;;1.58;;
23519;SDS011;11936;50.820;4.336;2022-10-26T02:44:00;6.45;;;1.30;;
23519;SDS011;11936;50.820;4.336;2022-10-26T02:46:44;4.88;;;1.10;;
23519;SDS011;11936;50.820;4.336;2022-10-26T02:49:10;7.85;;;1.45;;
23519;SDS011;11936;50.820;4.336;2022-10-26T02:54:31;5.47;;;1.40;;
23519;SDS011;11936;50.820;4.336;2022-10-26T02:57:10;9.85;;;1.40;;
23519;SDS011;11936;50.820;4.336;2022-10-26T02:59:57;5.10;;;1.67;;
23519;SDS011;11936;50.820;4.336;2022-10-26T03:02:25;4.13;;;1.30;;
23519;SDS011;11936;50.820;4.336;2022-10-26T03:04:51;4.43;;;1.30;;
23519;SDS011;11936;50.820;4.336;2022-10-26T03:07:39;3.85;;;1.40;;
23519;SDS011;11936;50.820;4.336;2022-10-26T03:10:05;3.13;;;1.27;;
23519;SDS011;11936;50.820;4.336;2022-10-26T03:12:31;6.53;;;1.70;;
23519;SDS011;11936;50.820;4.336;2022-10-26T03:14:56;4.22;;;1.48;;
23519;SDS011;11936;50.820;4.336;2022-10-26T03:17:22;5.55;;;1.48;;
23519;SDS011;11936;50.820;4.336;2022-10-26T03:19:47;4.32;;;2.03;;
23519;SDS011;11936;50.820;4.336;2022-10-26T03:22:13;6.57;;;1.30;;
23519;SDS011;11936;50.820;4.336;2022-10-26T03:24:38;1.98;;;0.80;;
23519;SDS011;11936;50.820;4.336;2022-10-26T03:27:04;4.65;;;1.40;;
23519;SDS011;11936;50.820;4.336;2022-10-26T03:29:30;7.97;;;1.52;;
23519;SDS011;11936;50.820;4.336;2022-10-26T03:34:37;3.08;;;1.70;;
23519;SDS011;11936;50.820;4.336;2022-10-26T03:37:38;3.72;;;1.40;;
23519;SDS011;11936;50.820;4.336;2022-10-26T03:40:04;6.90;;;1.42;;
23519;SDS011;11936;50.820;4.336;2022-10-26T03:43:03;6.70;;;1.55;;
23519;SDS011;11936;50.820;4.336;2022-10-26T03:45:44;4.63;;;1.70;;
23519;SDS011;11936;50.820;4.336;2022-10-26T03:48:12;2.20;;;1.27;;
23519;SDS011;11936;50.820;4.336;2022-10-26T03:50:50;2.78;;;1.73;;
23519;SDS011;11936;50.820;4.336;2022-10-26T03:53:21;3.40;;;1.40;;
23519;SDS011;11936;50.820;4.336;2022-10-26T03:55:47;7.63;;;2.10;;
23519;SDS011;11936;50.820;4.336;2022-10-26T03:58:13;4.72;;;1.58;;
23519;SDS011;11936;50.820;4.336;2022-10-26T04:00:59;8.38;;;1.80;;
23519;SDS011;11936;50.820;4.336;2022-10-26T04:03:24;7.70;;;1.98;;
23519;SDS011;11936;50.820;4.336;2022-10-26T04:05:50;3.15;;;1.50;;
23519;SDS011;11936;50.820;4.336;2022-10-26T04:08:15;4.85;;;1.75;;
23519;SDS011;11936;50.820;4.336;2022-10-26T04:10:54;8.55;;;2.88;;
23519;SDS011;11936;50.820;4.336;2022-10-26T04:13:38;10.90;;;2.33;;
23519;SDS011;11936;50.820;4.336;2022-10-26T04:18:58;3.15;;;1.70;;
23519;SDS011;11936;50.820;4.336;2022-10-26T04:21:26;7.22;;;2.17;;
23519;SDS011;11936;50.820;4.336;2022-10-26T04:23:54;6.95;;;2.05;;
23519;SDS011;11936;50.820;4.336;2022-10-26T04:26:35;4.68;;;1.73;;
23519;SDS011;11936;50.820;4.336;2022-10-26T04:29:01;5.10;;;1.90;;
23519;SDS011;11936;50.820;4.336;2022-10-26T04:34:06;3.63;;;1.50;;
23519;SDS011;11936;50.820;4.336;2022-10-26T04:36:31;7.22;;;2.40;;
23519;SDS011;11936;50.820;4.336;2022-10-26T04:38:58;4.50;;;2.08;;
23519;SDS011;11936;50.820;4.336;2022-10-26T04:41:24;2.83;;;1.73;;
23519;SDS011;11936;50.820;4.336;2022-10-26T04:43:49;7.88;;;1.70;;
23519;SDS011;11936;50.820;4.336;2022-10-26T04:46:15;2.70;;;1.70;;
23519;SDS011;11936;50.820;4.336;2022-10-26T04:48:40;6.65;;;1.73;;
23519;SDS011;11936;50.820;4.336;2022-10-26T04:51:06;6.20;;;1.50;;
23519;SDS011;11936;50.820;4.336;2022-10-26T04:53:32;11.07;;;2.10;;
23519;SDS011;11936;50.820;4.336;2022-10-26T04:55:58;4.63;;;2.30;;
23519;SDS011;11936;50.820;4.336;2022-10-26T04:58:25;3.40;;;2.13;;
23519;SDS011;11936;50.820;4.336;2022-10-26T05:00:51;6.82;;;2.20;;
23519;SDS011;11936;50.820;4.336;2022-10-26T05:03:17;5.00;;;2.28;;
23519;SDS011;11936;50.820;4.336;2022-10-26T05:05:46;4.72;;;2.03;;
23519;SDS011;11936;50.820;4.336;2022-10-26T05:08:15;4.53;;;2.08;;
23519;SDS011;11936;50.820;4.336;2022-10-26T05:10:47;5.53;;;2.10;;
23519;SDS011;11936;50.820;4.336;2022-10-26T05:13:14;6.13;;;2.15;;
23519;SDS011;11936;50.820;4.336;2022-10-26T05:15:57;5.32;;;2.22;;
23519;SDS011;11936;50.820;4.336;2022-10-26T05:18:26;7.90;;;2.92;;
23519;SDS011;11936;50.820;4.336;2022-10-26T05:20:52;4.07;;;1.90;;
23519;SDS011;11936;50.820;4.336;2022-10-26T05:23:36;6.38;;;1.80;;
23519;SDS011;11936;50.820;4.336;2022-10-26T05:26:01;6.55;;;2.60;;
23519;SDS011;11936;50.820;4.336;2022-10-26T05:28:27;8.10;;;2.25;;
23519;SDS011;11936;50.820;4.336;2022-10-26T05:30:52;5.30;;;2.50;;
23519;SDS011;11936;50.820;4.336;2022-10-26T05:33:18;5.68;;;3.53;;
23519;SDS011;11936;50.820;4.336;2022-10-26T05:35:44;5.05;;;2.47;;
23519;SDS011;11936;50.820;4.336;2022-10-26T05:38:11;5.97;;;2.28;;
23519;SDS011;11936;50.820;4.336;2022-10-26T05:40:45;9.50;;;2.97;;
23519;SDS011;11936;50.820;4.336;2022-10-26T05:43:14;11.18;;;2.10;;
23519;SDS011;11936;50.820;4.336;2022-10-26T05:45:40;5.20;;;2.30;;
23519;SDS011;11936;50.820;4.336;2022-10-26T05:48:05;8.27;;;2.70;;
23519;SDS011;11936;50.820;4.336;2022-10-26T05:50:31;8.38;;;2.20;;
23519;SDS011;11936;50.820;4.336;2022-10-26T05:52:57;7.90;;;2.10;;
23519;SDS011;11936;50.820;4.336;2022-10-26T05:55:22;7.03;;;2.22;;
23519;SDS011;11936;50.820;4.336;2022-10-26T05:57:48;4.78;;;2.40;;
23519;SDS011;11936;50.820;4.336;2022-10-26T06:00:18;5.93;;;2.55;;
23519;SDS011;11936;50.820;4.336;2022-10-26T06:05:13;5.97;;;2.80;;
23519;SDS011;11936;50.820;4.336;2022-10-26T06:07:43;10.50;;;2.70;;
23519;SDS011;11936;50.820;4.336;2022-10-26T06:10:09;10.00;;;2.50;;
23519;SDS011;11936;50.820;4.336;2022-10-26T06:12:36;4.32;;;2.40;;
23519;SDS011;11936;50.820;4.336;2022-10-26T06:15:01;11.43;;;3.15;;
23519;SDS011;11936;50.820;4.336;2022-10-26T06:30:38;13.68;;;2.78;;
23519;SDS011;11936;50.820;4.336;2022-10-26T06:33:04;7.53;;;2.92;;
23519;SDS011;11936;50.820;4.336;2022-10-26T06:38:06;9.98;;;2.53;;
23519;SDS011;11936;50.820;4.336;2022-10-26T06:40:35;6.63;;;2.90;;
23519;SDS011;11936;50.820;4.336;2022-10-26T06:43:04;7.78;;;2.92;;
23519;SDS011;11936;50.820;4.336;2022-10-26T06:45:40;7.65;;;2.70;;
23519;SDS011;11936;50.820;4.336;2022-10-26T06:48:09;8.82;;;2.28;;
23519;SDS011;11936;50.820;4.336;2022-10-26T06:50:43;7.60;;;2.60;;
23519;SDS011;11936;50.820;4.336;2022-10-26T06:53:17;6.13;;;2.67;;
23519;SDS011;11936;50.820;4.336;2022-10-26T06:55:49;6.50;;;2.40;;
23519;SDS011;11936;50.820;4.336;2022-10-26T06:58:17;4.20;;;2.58;;
23519;SDS011;11936;50.820;4.336;2022-10-26T07:00:45;8.35;;;2.60;;
23519;SDS011;11936;50.820;4.336;2022-10-26T07:03:13;7.15;;;2.80;;
23519;SDS011;11936;50.820;4.336;2022-10-26T07:05:39;6.22;;;2.20;;
23519;SDS011;11936;50.820;4.336;2022-10-26T07:08:04;4.05;;;2.00;;
23519;SDS011;11936;50.820;4.336;2022-10-26T07:10:30;10.35;;;2.03;;
23519;SDS011;11936;50.820;4.336;2022-10-26T07:12:56;2.97;;;2.10;;
23519;SDS011;11936;50.820;4.336;2022-10-26T07:15:22;4.78;;;1.75;;
23519;SDS011;11936;50.820;4.336;2022-10-26T07:17:48;4.95;;;2.40;;
23519;SDS011;11936;50.820;4.336;2022-10-26T07:20:14;13.85;;;2.58;;
23519;SDS011;11936;50.820;4.336;2022-10-26T07:22:42;6.78;;;2.28;;
23519;SDS011;11936;50.820;4.336;2022-10-26T07:25:08;8.05;;;1.90;;
23519;SDS011;11936;50.820;4.336;2022-10-26T07:27:34;4.72;;;2.33;;
23519;SDS011;11936;50.820;4.336;2022-10-26T07:30:00;7.82;;;2.00;;
23519;SDS011;11936;50.820;4.336;2022-10-26T07:32:26;7.53;;;2.20;;
23519;SDS011;11936;50.820;4.336;2022-10-26T07:34:51;8.02;;;2.17;;
23519;SDS011;11936;50.820;4.336;2022-10-26T07:37:17;20.20;;;2.50;;
23519;SDS011;11936;50.820;4.336;2022-10-26T07:39:42;12.23;;;2.20;;
23519;SDS011;11936;50.820;4.336;2022-10-26T07:42:08;7.10;;;2.30;;
23519;SDS011;11936;50.820;4.336;2022-10-26T07:44:33;6.28;;;2.30;;
23519;SDS011;11936;50.820;4.336;2022-10-26T07:46:59;5.88;;;2.30;;
23519;SDS011;11936;50.820;4.336;2022-10-26T07:49:25;6.38;;;2.30;;
23519;SDS011;11936;50.820;4.336;2022-10-26T07:52:08;11.75;;;2.85;;
23519;SDS011;11936;50.820;4.336;2022-10-26T07:54:34;11.60;;;3.25;;
23519;SDS011;11936;50.820;4.336;2022-10-26T07:57:00;10.02;;;2.58;;
23519;SDS011;11936;50.820;4.336;2022-10-26T07:59:26;5.45;;;2.28;;
23519;SDS011;11936;50.820;4.336;2022-10-26T08:01:52;9.50;;;2.75;;
23519;SDS011;11936;50.820;4.336;2022-10-26T08:04:17;8.70;;;2.60;;
23519;SDS011;11936;50.820;4.336;2022-10-26T08:06:43;4.00;;;1.85;;
23519;SDS011;11936;50.820;4.336;2022-10-26T08:09:08;10.98;;;2.55;;
23519;SDS011;11936;50.820;4.336;2022-10-26T08:11:34;9.30;;;2.10;;
23519;SDS011;11936;50.820;4.336;2022-10-26T08:14:01;6.57;;;2.00;;
23519;SDS011;11936;50.820;4.336;2022-10-26T08:16:27;11.38;;;2.30;;
23519;SDS011;11936;50.820;4.336;2022-10-26T08:18:53;7.93;;;1.98;;
23519;SDS011;11936;50.820;4.336;2022-10-26T08:21:19;7.72;;;1.95;;
23519;SDS011;11936;50.820;4.336;2022-10-26T08:23:45;9.65;;;2.20;;
23519;SDS011;11936;50.820;4.336;2022-10-26T08:26:10;13.75;;;2.55;;
23519;SDS011;11936;50.820;4.336;2022-10-26T08:28:36;10.80;;;2.38;;
23519;SDS011;11936;50.820;4.336;2022-10-26T08:31:03;9.35;;;2.38;;
23519;SDS011;11936;50.820;4.336;2022-10-26T08:33:29;10.20;;;2.28;;
23519;SDS011;11936;50.820;4.336;2022-10-26T08:35:55;10.05;;;2.72;;
23519;SDS011;11936;50.820;4.336;2022-10-26T08:38:24;9.20;;;2.38;;
23519;SDS011;11936;50.820;4.336;2022-10-26T08:40:50;5.72;;;2.33;;
23519;SDS011;11936;50.820;4.336;2022-10-26T08:43:20;7.70;;;2.38;;
23519;SDS011;11936;50.820;4.336;2022-10-26T08:48:33;4.27;;;2.40;;
23519;SDS011;11936;50.820;4.336;2022-10-26T08:51:05;7.82;;;2.40;;
23519;SDS011;11936;50.820;4.336;2022-10-26T08:53:59;9.43;;;2.50;;
23519;SDS011;11936;50.820;4.336;2022-10-26T08:56:34;6.70;;;2.20;;
23519;SDS011;11936;50.820;4.336;2022-10-26T08:59:08;7.38;;;2.67;;
23519;SDS011;11936;50.820;4.336;2022-10-26T09:01:54;14.63;;;2.83;;
23519;SDS011;11936;50.820;4.336;2022-10-26T09:04:21;3.60;;;2.00;;
23519;SDS011;11936;50.820;4.336;2022-10-26T09:09:26;6.18;;;2.63;;
23519;SDS011;11936;50.820;4.336;2022-10-26T09:12:22;5.53;;;2.00;;
23519;SDS011;11936;50.820;4.336;2022-10-26T09:18:25;5.80;;;2.13;;
23519;SDS011;11936;50.820;4.336;2022-10-26T09:26:37;11.97;;;2.50;;
23519;SDS011;11936;50.820;4.336;2022-10-26T09:29:12;7.30;;;1.70;;
23519;SDS011;11936;50.820;4.336;2022-10-26T09:31:39;4.53;;;2.08;;
23519;SDS011;11936;50.820;4.336;2022-10-26T09:34:06;10.35;;;2.70;;
23519;SDS011;11936;50.820;4.336;2022-10-26T09:37:10;14.43;;;2.53;;
23519;SDS011;11936;50.820;4.336;2022-10-26T09:40:07;3.75;;;2.22;;
23519;SDS011;11936;50.820;4.336;2022-10-26T09:46:02;6.88;;;1.88;;
23519;SDS011;11936;50.820;4.336;2022-10-26T09:48:35;11.80;;;2.20;;
23519;SDS011;11936;50.820;4.336;2022-10-26T09:51:05;5.30;;;2.08;;
23519;SDS011;11936;50.820;4.336;2022-10-26T09:53:31;5.68;;;1.92;;
23519;SDS011;11936;50.820;4.336;2022-10-26T09:56:05;11.70;;;2.08;;
23519;SDS011;11936;50.820;4.336;2022-10-26T09:58:35;9.65;;;1.85;;
23519;SDS011;11936;50.820;4.336;2022-10-26T10:01:28;5.78;;;1.77;;
23519;SDS011;11936;50.820;4.336;2022-10-26T10:06:41;10.80;;;2.03;;
23519;SDS011;11936;50.820;4.336;2022-10-26T10:09:11;3.70;;;1.75;;
23519;SDS011;11936;50.820;4.336;2022-10-26T10:14:19;7.70;;;2.20;;
23519;SDS011;11936;50.820;4.336;2022-10-26T10:16:49;7.05;;;1.55;;
23519;SDS011;11936;50.820;4.336;2022-10-26T10:19:23;7.43;;;1.88;;
23519;SDS011;11936;50.820;4.336;2022-10-26T10:21:51;6.70;;;1.65;;
23519;SDS011;11936;50.820;4.336;2022-10-26T10:26:56;6.85;;;1.75;;
23519;SDS011;11936;50.820;4.336;2022-10-26T10:29:30;4.72;;;1.73;;
23519;SDS011;11936;50.820;4.336;2022-10-26T10:31:58;6.32;;;1.92;;
23519;SDS011;11936;50.820;4.336;2022-10-26T10:34:26;3.47;;;1.65;;
23519;SDS011;11936;50.820;4.336;2022-10-26T10:39:30;6.38;;;1.60;;
23519;SDS011;11936;50.820;4.336;2022-10-26T10:42:06;8.23;;;1.40;;
23519;SDS011;11936;50.820;4.336;2022-10-26T10:44:42;5.53;;;1.73;;
23519;SDS011;11936;50.820;4.336;2022-10-26T10:47:15;4.93;;;1.70;;
23519;SDS011;11936;50.820;4.336;2022-10-26T10:49:50;4.00;;;1.65;;
23519;SDS011;11936;50.820;4.336;2022-10-26T10:52:26;5.15;;;1.52;;
23519;SDS011;11936;50.820;4.336;2022-10-26T10:55:16;7.18;;;1.80;;
23519;SDS011;11936;50.820;4.336;2022-10-26T11:00:20;2.65;;;1.73;;
23519;SDS011;11936;50.820;4.336;2022-10-26T11:06:02;4.13;;;1.77;;
23519;SDS011;11936;50.820;4.336;2022-10-26T11:08:41;11.88;;;2.33;;
23519;SDS011;11936;50.820;4.336;2022-10-26T11:11:22;6.28;;;2.20;;
23519;SDS011;11936;50.820;4.336;2022-10-26T11:16:30;7.10;;;2.63;;
23519;SDS011;11936;50.820;4.336;2022-10-26T11:19:23;10.55;;;2.28;;
23519;SDS011;11936;50.820;4.336;2022-10-26T11:21:55;6.78;;;1.80;;
23519;SDS011;11936;50.820;4.336;2022-10-26T11:24:30;9.13;;;1.83;;
23519;SDS011;11936;50.820;4.336;2022-10-26T11:27:08;3.03;;;1.52;;
23519;SDS011;11936;50.820;4.336;2022-10-26T11:29:50;8.73;;;1.92;;
23519;SDS011;11936;50.820;4.336;2022-10-26T11:35:28;8.00;;;1.80;;
23519;SDS011;11936;50.820;4.336;2022-10-26T11:38:13;6.50;;;1.80;;
23519;SDS011;11936;50.820;4.336;2022-10-26T11:43:15;5.28;;;1.75;;
23519;SDS011;11936;50.820;4.336;2022-10-26T11:45:43;5.22;;;1.88;;
23519;SDS011;11936;50.820;4.336;2022-10-26T11:48:13;5.28;;;1.80;;
23519;SDS011;11936;50.820;4.336;2022-10-26T11:50:49;5.38;;;2.03;;
23519;SDS011;11936;50.820;4.336;2022-10-26T11:53:18;5.82;;;1.73;;
23519;SDS011;11936;50.820;4.336;2022-10-26T11:55:49;6.97;;;2.03;;
23519;SDS011;11936;50.820;4.336;2022-10-26T12:00:44;11.82;;;2.70;;
23519;SDS011;11936;50.820;4.336;2022-10-26T12:03:16;7.40;;;1.88;;
23519;SDS011;11936;50.820;4.336;2022-10-26T12:05:49;9.25;;;2.83;;
23519;SDS011;11936;50.820;4.336;2022-10-26T12:08:23;5.22;;;1.75;;
23519;SDS011;11936;50.820;4.336;2022-10-26T12:11:06;6.65;;;2.10;;
23519;SDS011;11936;50.820;4.336;2022-10-26T12:13:37;6.30;;;1.60;;
23519;SDS011;11936;50.820;4.336;2022-10-26T12:18:56;4.68;;;1.67;;
23519;SDS011;11936;50.820;4.336;2022-10-26T12:21:28;5.07;;;1.67;;
23519;SDS011;11936;50.820;4.336;2022-10-26T12:24:01;6.60;;;1.63;;
23519;SDS011;11936;50.820;4.336;2022-10-26T12:27:18;9.30;;;2.13;;
23519;SDS011;11936;50.820;4.336;2022-10-26T12:30:00;9.32;;;2.10;;
23519;SDS011;11936;50.820;4.336;2022-10-26T12:37:53;5.00;;;1.55;;
23519;SDS011;11936;50.820;4.336;2022-10-26T12:45:38;6.25;;;1.45;;
23519;SDS011;11936;50.820;4.336;2022-10-26T12:48:38;6.90;;;1.73;;
23519;SDS011;11936;50.820;4.336;2022-10-26T12:56:54;10.73;;;2.10;;
23519;SDS011;11936;50.820;4.336;2022-10-26T13:05:36;6.90;;;1.83;;
23519;SDS011;11936;50.820;4.336;2022-10-26T13:08:22;5.32;;;1.20;;
23519;SDS011;11936;50.820;4.336;2022-10-26T13:11:32;8.57;;;2.17;;
23519;SDS011;11936;50.820;4.336;2022-10-26T13:13:54;4.55;;;1.40;;
23519;SDS011;11936;50.820;4.336;2022-10-26T13:18:49;9.32;;;1.65;;
23519;SDS011;11936;50.820;4.336;2022-10-26T13:21:15;5.75;;;1.27;;
23519;SDS011;11936;50.820;4.336;2022-10-26T13:23:46;5.33;;;1.47;;
23519;SDS011;11936;50.820;4.336;2022-10-26T13:26:18;5.18;;;1.50;;
23519;SDS011;11936;50.820;4.336;2022-10-26T13:29:07;7.25;;;1.80;;
23519;SDS011;11936;50.820;4.336;2022-10-26T13:36:52;6.10;;;1.75;;
23519;SDS011;11936;50.820;4.336;2022-10-26T13:39:38;5.65;;;1.85;;
23519;SDS011;11936;50.820;4.336;2022-10-26T13:42:06;3.75;;;1.30;;
23519;SDS011;11936;50.820;4.336;2022-10-26T13:44:51;8.02;;;1.45;;
23519;SDS011;11936;50.820;4.336;2022-10-26T13:49:53;7.43;;;1.63;;
23519;SDS011;11936;50.820;4.336;2022-10-26T13:52:27;7.25;;;1.85;;
23519;SDS011;11936;50.820;4.336;2022-10-26T13:55:19;4.03;;;1.23;;
23519;SDS011;11936;50.820;4.336;2022-10-26T14:03:23;6.65;;;1.60;;
23519;SDS011;11936;50.820;4.336;2022-10-26T14:05:50;8.25;;;1.92;;
23519;SDS011;11936;50.820;4.336;2022-10-26T14:08:17;6.93;;;1.80;;
23519;SDS011;11936;50.820;4.336;2022-10-26T14:10:52;16.03;;;2.00;;
23519;SDS011;11936;50.820;4.336;2022-10-26T14:13:23;5.38;;;1.60;;
23519;SDS011;11936;50.820;4.336;2022-10-26T14:15:50;8.02;;;2.03;;
23519;SDS011;11936;50.820;4.336;2022-10-26T14:18:20;6.95;;;1.80;;
23519;SDS011;11936;50.820;4.336;2022-10-26T14:21:06;9.00;;;1.92;;
23519;SDS011;11936;50.820;4.336;2022-10-26T14:23:53;11.50;;;2.50;;
23519;SDS011;11936;50.820;4.336;2022-10-26T14:26:25;11.70;;;1.88;;
23519;SDS011;11936;50.820;4.336;2022-10-26T14:28:57;7.88;;;1.67;;
23519;SDS011;11936;50.820;4.336;2022-10-26T14:31:28;8.95;;;2.50;;
23519;SDS011;11936;50.820;4.336;2022-10-26T14:33:55;7.53;;;2.00;;
23519;SDS011;11936;50.820;4.336;2022-10-26T14:36:29;4.30;;;1.93;;
23519;SDS011;11936;50.820;4.336;2022-10-26T14:39:32;5.53;;;2.22;;
23519;SDS011;11936;50.820;4.336;2022-10-26T14:42:00;5.13;;;2.13;;
23519;SDS011;11936;50.820;4.336;2022-10-26T14:44:38;9.55;;;1.75;;
23519;SDS011;11936;50.820;4.336;2022-10-26T14:47:03;8.30;;;1.90;;
23519;SDS011;11936;50.820;4.336;2022-10-26T14:49:43;8.40;;;1.77;;
23519;SDS011;11936;50.820;4.336;2022-10-26T14:52:10;8.65;;;1.63;;
23519;SDS011;11936;50.820;4.336;2022-10-26T14:54:43;7.00;;;2.03;;
23519;SDS011;11936;50.820;4.336;2022-10-26T14:57:28;4.18;;;1.83;;
23519;SDS011;11936;50.820;4.336;2022-10-26T15:00:14;9.23;;;1.50;;
23519;SDS011;11936;50.820;4.336;2022-10-26T15:02:50;5.43;;;1.73;;
23519;SDS011;11936;50.820;4.336;2022-10-26T15:07:50;8.48;;;2.22;;
23519;SDS011;11936;50.820;4.336;2022-10-26T15:15:45;7.60;;;1.65;;
23519;SDS011;11936;50.820;4.336;2022-10-26T15:18:17;5.97;;;1.92;;
23519;SDS011;11936;50.820;4.336;2022-10-26T15:20:47;11.93;;;2.30;;
23519;SDS011;11936;50.820;4.336;2022-10-26T15:23:14;9.77;;;2.20;;
23519;SDS011;11936;50.820;4.336;2022-10-26T15:25:48;6.60;;;1.17;;
23519;SDS011;11936;50.820;4.336;2022-10-26T15:33:43;12.18;;;1.67;;
23519;SDS011;11936;50.820;4.336;2022-10-26T15:36:28;7.00;;;1.60;;
23519;SDS011;11936;50.820;4.336;2022-10-26T15:38:54;7.05;;;2.05;;
23519;SDS011;11936;50.820;4.336;2022-10-26T15:41:31;5.40;;;1.45;;
23519;SDS011;11936;50.820;4.336;2022-10-26T15:44:03;10.93;;;1.52;;
23519;SDS011;11936;50.820;4.336;2022-10-26T15:46:31;5.07;;;1.25;;
23519;SDS011;11936;50.820;4.336;2022-10-26T15:48:59;5.85;;;1.83;;
23519;SDS011;11936;50.820;4.336;2022-10-26T15:51:26;6.30;;;1.35;;
23519;SDS011;11936;50.820;4.336;2022-10-26T15:53:54;3.87;;;1.77;;
23519;SDS011;11936;50.820;4.336;2022-10-26T15:56:22;5.45;;;1.63;;
23519;SDS011;11936;50.820;4.336;2022-10-26T15:58:49;10.77;;;1.75;;
23519;SDS011;11936;50.820;4.336;2022-10-26T16:01:15;5.85;;;1.35;;
23519;SDS011;11936;50.820;4.336;2022-10-26T16:03:46;5.32;;;1.67;;
23519;SDS011;11936;50.820;4.336;2022-10-26T16:08:54;9.07;;;2.05;;
23519;SDS011;11936;50.820;4.336;2022-10-26T16:11:25;5.53;;;1.73;;
23519;SDS011;11936;50.820;4.336;2022-10-26T16:13:51;6.15;;;1.65;;
23519;SDS011;11936;50.820;4.336;2022-10-26T16:16:18;3.10;;;1.45;;
23519;SDS011;11936;50.820;4.336;2022-10-26T16:18:44;4.93;;;1.77;;
23519;SDS011;11936;50.820;4.336;2022-10-26T16:21:14;7.28;;;2.53;;
23519;SDS011;11936;50.820;4.336;2022-10-26T16:23:41;8.90;;;2.78;;
23519;SDS011;11936;50.820;4.336;2022-10-26T16:26:10;14.63;;;11.07;;
23519;SDS011;11936;50.820;4.336;2022-10-26T16:28:36;7.60;;;2.42;;
23519;SDS011;11936;50.820;4.336;2022-10-26T16:31:02;6.35;;;2.40;;
23519;SDS011;11936;50.820;4.336;2022-10-26T16:33:30;7.90;;;2.10;;
23519;SDS011;11936;50.820;4.336;2022-10-26T16:35:56;6.88;;;2.13;;
23519;SDS011;11936;50.820;4.336;2022-10-26T16:38:22;10.05;;;2.90;;
23519;SDS011;11936;50.820;4.336;2022-10-26T16:40:49;4.78;;;2.17;;
23519;SDS011;11936;50.820;4.336;2022-10-26T16:43:14;6.78;;;1.90;;
23519;SDS011;11936;50.820;4.336;2022-10-26T16:45:40;7.28;;;2.08;;
23519;SDS011;11936;50.820;4.336;2022-10-26T16:48:07;4.80;;;1.75;;
23519;SDS011;11936;50.820;4.336;2022-10-26T16:50:38;5.28;;;1.60;;
23519;SDS011;11936;50.820;4.336;2022-10-26T16:53:04;6.20;;;3.05;;
23519;SDS011;11936;50.820;4.336;2022-10-26T16:55:29;8.63;;;1.88;;
23519;SDS011;11936;50.820;4.336;2022-10-26T16:57:55;15.23;;;3.42;;
23519;SDS011;11936;50.820;4.336;2022-10-26T17:00:20;5.80;;;2.45;;
23519;SDS011;11936;50.820;4.336;2022-10-26T17:02:46;11.70;;;4.97;;
23519;SDS011;11936;50.820;4.336;2022-10-26T17:05:12;13.50;;;6.40;;
23519;SDS011;11936;50.820;4.336;2022-10-26T17:07:37;16.15;;;8.43;;
23519;SDS011;11936;50.820;4.336;2022-10-26T17:10:03;13.40;;;8.50;;
23519;SDS011;11936;50.820;4.336;2022-10-26T17:12:29;7.88;;;2.75;;
23519;SDS011;11936;50.820;4.336;2022-10-26T17:14:55;3.95;;;1.55;;
23519;SDS011;11936;50.820;4.336;2022-10-26T17:17:22;6.00;;;2.40;;
23519;SDS011;11936;50.820;4.336;2022-10-26T17:19:48;7.50;;;2.67;;
23519;SDS011;11936;50.820;4.336;2022-10-26T17:22:14;11.02;;;2.95;;
23519;SDS011;11936;50.820;4.336;2022-10-26T17:24:40;11.68;;;5.55;;
23519;SDS011;11936;50.820;4.336;2022-10-26T17:27:05;5.50;;;2.10;;
23519;SDS011;11936;50.820;4.336;2022-10-26T17:29:31;15.23;;;8.27;;
23519;SDS011;11936;50.820;4.336;2022-10-26T17:31:56;10.27;;;7.15;;
23519;SDS011;11936;50.820;4.336;2022-10-26T17:34:22;17.73;;;5.35;;
23519;SDS011;11936;50.820;4.336;2022-10-26T17:36:47;10.90;;;2.47;;
23519;SDS011;11936;50.820;4.336;2022-10-26T17:39:13;7.43;;;3.00;;
23519;SDS011;11936;50.820;4.336;2022-10-26T17:41:40;16.70;;;9.23;;
23519;SDS011;11936;50.820;4.336;2022-10-26T17:44:05;16.15;;;9.57;;
23519;SDS011;11936;50.820;4.336;2022-10-26T17:46:34;18.58;;;8.70;;
23519;SDS011;11936;50.820;4.336;2022-10-26T17:48:59;13.30;;;6.07;;
23519;SDS011;11936;50.820;4.336;2022-10-26T17:51:26;28.15;;;14.20;;
23519;SDS011;11936;50.820;4.336;2022-10-26T17:53:53;18.52;;;10.15;;
23519;SDS011;11936;50.820;4.336;2022-10-26T17:56:23;20.73;;;12.27;;
23519;SDS011;11936;50.820;4.336;2022-10-26T17:58:54;15.77;;;8.93;;